sensor_id;sensor_type;location;lat;lon;timestamp;P1;durP1;ratioP1;P2;durP2;ratioP2
23252;SDS011;11795;47.054;15.408;2023-07-13T00:00:01;1.2;;;0.8;;
23252;SDS011;11795;47.054;15.408;2023-07-13T00:02:01;1.3;;;0.7;;
23252;SDS011;11795;47.054;15.408;2023-07-13T00:04:00;1.3;;;0.7;;
23252;SDS011;11795;47.054;15.408;2023-07-13T00:06:00;1.3;;;0.7;;
23252;SDS011;11795;47.054;15.408;2023-07-13T00:08:00;1.3;;;0.6;;
23252;SDS011;11795;47.054;15.408;2023-07-13T00:10:01;1.3;;;0.6;;
23252;SDS011;11795;47.054;15.408;2023-07-13T00:12:01;0.9;;;0.6;;
23252;SDS011;11795;47.054;15.408;2023-07-13T00:14:00;0.9;;;0.6;;
23252;SDS011;11795;47.054;15.408;2023-07-13T00:16:01;0.9;;;0.6;;
23252;SDS011;11795;47.054;15.408;2023-07-13T00:18:01;0.7;;;0.6;;
23252;SDS011;11795;47.054;15.408;2023-07-13T00:20:00;0.7;;;0.6;;
23252;SDS011;11795;47.054;15.408;2023-07-13T00:22:00;1.9;;;0.7;;
23252;SDS011;11795;47.054;15.408;2023-07-13T00:24:01;1.9;;;0.7;;
23252;SDS011;11795;47.054;15.408;2023-07-13T00:26:01;1.9;;;0.7;;
23252;SDS011;11795;47.054;15.408;2023-07-13T00:28:00;1.3;;;0.7;;
23252;SDS011;11795;47.054;15.408;2023-07-13T00:30:00;1.3;;;0.7;;
23252;SDS011;11795;47.054;15.408;2023-07-13T00:32:01;0.8;;;0.7;;
23252;SDS011;11795;47.054;15.408;2023-07-13T00:34:00;0.8;;;0.7;;
23252;SDS011;11795;47.054;15.408;2023-07-13T00:36:00;0.8;;;0.7;;
23252;SDS011;11795;47.054;15.408;2023-07-13T00:38:01;1.3;;;0.8;;
23252;SDS011;11795;47.054;15.408;2023-07-13T00:40:00;1.3;;;0.8;;
23252;SDS011;11795;47.054;15.408;2023-07-13T00:42:00;1.2;;;0.7;;
23252;SDS011;11795;47.054;15.408;2023-07-13T00:44:01;1.2;;;0.7;;
23252;SDS011;11795;47.054;15.408;2023-07-13T00:48:00;1.5;;;0.8;;
23252;SDS011;11795;47.054;15.408;2023-07-13T00:50:00;1.5;;;0.8;;
23252;SDS011;11795;47.054;15.408;2023-07-13T00:52:02;3.1;;;0.9;;
23252;SDS011;11795;47.054;15.408;2023-07-13T00:54:04;3.1;;;0.9;;
23252;SDS011;11795;47.054;15.408;2023-07-13T00:56:00;3.1;;;0.9;;
23252;SDS011;11795;47.054;15.408;2023-07-13T00:58:00;1.6;;;0.7;;
23252;SDS011;11795;47.054;15.408;2023-07-13T01:00:01;1.6;;;0.7;;
23252;SDS011;11795;47.054;15.408;2023-07-13T01:02:01;1.2;;;0.6;;
23252;SDS011;11795;47.054;15.408;2023-07-13T01:04:00;1.2;;;0.6;;
23252;SDS011;11795;47.054;15.408;2023-07-13T01:06:00;1.2;;;0.6;;
23252;SDS011;11795;47.054;15.408;2023-07-13T01:08:01;2.2;;;0.7;;
23252;SDS011;11795;47.054;15.408;2023-07-13T01:10:00;2.2;;;0.7;;
23252;SDS011;11795;47.054;15.408;2023-07-13T01:12:00;2.0;;;0.8;;
23252;SDS011;11795;47.054;15.408;2023-07-13T01:14:01;2.0;;;0.8;;
23252;SDS011;11795;47.054;15.408;2023-07-13T01:16:02;2.0;;;0.8;;
23252;SDS011;11795;47.054;15.408;2023-07-13T01:18:00;1.5;;;0.8;;
23252;SDS011;11795;47.054;15.408;2023-07-13T01:20:00;1.5;;;0.8;;
23252;SDS011;11795;47.054;15.408;2023-07-13T01:22:00;1.7;;;0.8;;
23252;SDS011;11795;47.054;15.408;2023-07-13T01:24:02;1.7;;;0.8;;
23252;SDS011;11795;47.054;15.408;2023-07-13T01:26:00;1.7;;;0.8;;
23252;SDS011;11795;47.054;15.408;2023-07-13T01:28:00;1.5;;;0.7;;
23252;SDS011;11795;47.054;15.408;2023-07-13T01:30:04;1.5;;;0.7;;
23252;SDS011;11795;47.054;15.408;2023-07-13T01:32:01;1.7;;;1.0;;
23252;SDS011;11795;47.054;15.408;2023-07-13T01:34:00;1.7;;;1.0;;
23252;SDS011;11795;47.054;15.408;2023-07-13T01:36:02;1.7;;;1.0;;
23252;SDS011;11795;47.054;15.408;2023-07-13T01:38:01;2.1;;;0.9;;
23252;SDS011;11795;47.054;15.408;2023-07-13T01:40:00;2.1;;;0.9;;
23252;SDS011;11795;47.054;15.408;2023-07-13T01:42:00;2.6;;;1.0;;
23252;SDS011;11795;47.054;15.408;2023-07-13T01:44:00;2.6;;;1.0;;
23252;SDS011;11795;47.054;15.408;2023-07-13T01:46:00;2.6;;;1.0;;
23252;SDS011;11795;47.054;15.408;2023-07-13T01:48:01;3.3;;;1.2;;
23252;SDS011;11795;47.054;15.408;2023-07-13T01:50:00;3.3;;;1.2;;
23252;SDS011;11795;47.054;15.408;2023-07-13T01:52:00;2.1;;;1.4;;
23252;SDS011;11795;47.054;15.408;2023-07-13T01:54:00;2.1;;;1.4;;
23252;SDS011;11795;47.054;15.408;2023-07-13T01:56:00;2.1;;;1.4;;
23252;SDS011;11795;47.054;15.408;2023-07-13T01:58:00;2.6;;;1.5;;
23252;SDS011;11795;47.054;15.408;2023-07-13T02:00:01;2.6;;;1.5;;
23252;SDS011;11795;47.054;15.408;2023-07-13T02:02:00;2.8;;;1.4;;
23252;SDS011;11795;47.054;15.408;2023-07-13T02:04:00;2.8;;;1.4;;
23252;SDS011;11795;47.054;15.408;2023-07-13T02:06:00;2.8;;;1.4;;
23252;SDS011;11795;47.054;15.408;2023-07-13T02:08:00;3.0;;;1.1;;
23252;SDS011;11795;47.054;15.408;2023-07-13T02:10:01;3.0;;;1.1;;
23252;SDS011;11795;47.054;15.408;2023-07-13T02:12:00;1.0;;;0.9;;
23252;SDS011;11795;47.054;15.408;2023-07-13T02:14:01;1.0;;;0.9;;
23252;SDS011;11795;47.054;15.408;2023-07-13T02:16:00;1.0;;;0.9;;
23252;SDS011;11795;47.054;15.408;2023-07-13T02:18:00;2.7;;;1.1;;
23252;SDS011;11795;47.054;15.408;2023-07-13T02:20:00;2.7;;;1.1;;
23252;SDS011;11795;47.054;15.408;2023-07-13T02:22:00;2.3;;;1.1;;
23252;SDS011;11795;47.054;15.408;2023-07-13T02:24:00;2.3;;;1.1;;
23252;SDS011;11795;47.054;15.408;2023-07-13T02:26:03;2.3;;;1.1;;
23252;SDS011;11795;47.054;15.408;2023-07-13T02:28:00;2.2;;;1.0;;
23252;SDS011;11795;47.054;15.408;2023-07-13T02:30:00;2.2;;;1.0;;
23252;SDS011;11795;47.054;15.408;2023-07-13T02:32:00;2.4;;;1.2;;
23252;SDS011;11795;47.054;15.408;2023-07-13T02:34:00;2.4;;;1.2;;
23252;SDS011;11795;47.054;15.408;2023-07-13T02:36:00;2.4;;;1.2;;
23252;SDS011;11795;47.054;15.408;2023-07-13T02:38:00;1.7;;;1.1;;
23252;SDS011;11795;47.054;15.408;2023-07-13T02:40:00;1.7;;;1.1;;
23252;SDS011;11795;47.054;15.408;2023-07-13T02:42:00;2.2;;;1.1;;
23252;SDS011;11795;47.054;15.408;2023-07-13T02:44:03;2.2;;;1.1;;
23252;SDS011;11795;47.054;15.408;2023-07-13T02:46:06;2.2;;;1.1;;
23252;SDS011;11795;47.054;15.408;2023-07-13T02:48:00;2.8;;;1.6;;
23252;SDS011;11795;47.054;15.408;2023-07-13T02:50:01;2.8;;;1.6;;
23252;SDS011;11795;47.054;15.408;2023-07-13T02:52:00;2.8;;;1.6;;
23252;SDS011;11795;47.054;15.408;2023-07-13T02:54:00;2.2;;;1.5;;
23252;SDS011;11795;47.054;15.408;2023-07-13T02:56:00;2.2;;;1.5;;
23252;SDS011;11795;47.054;15.408;2023-07-13T02:58:01;2.2;;;1.5;;
23252;SDS011;11795;47.054;15.408;2023-07-13T03:00:01;2.2;;;1.5;;
23252;SDS011;11795;47.054;15.408;2023-07-13T03:02:00;2.2;;;1.5;;
23252;SDS011;11795;47.054;15.408;2023-07-13T03:04:00;1.6;;;1.5;;
23252;SDS011;11795;47.054;15.408;2023-07-13T03:06:01;1.6;;;1.5;;
23252;SDS011;11795;47.054;15.408;2023-07-13T03:08:00;2.3;;;1.8;;
23252;SDS011;11795;47.054;15.408;2023-07-13T03:10:00;2.3;;;1.8;;
23252;SDS011;11795;47.054;15.408;2023-07-13T03:12:00;2.3;;;1.8;;
23252;SDS011;11795;47.054;15.408;2023-07-13T03:14:00;3.5;;;2.0;;
23252;SDS011;11795;47.054;15.408;2023-07-13T03:16:00;3.5;;;2.0;;
23252;SDS011;11795;47.054;15.408;2023-07-13T03:18:00;2.3;;;1.6;;
23252;SDS011;11795;47.054;15.408;2023-07-13T03:20:00;2.3;;;1.6;;
23252;SDS011;11795;47.054;15.408;2023-07-13T03:22:00;2.3;;;1.6;;
23252;SDS011;11795;47.054;15.408;2023-07-13T03:24:00;2.5;;;1.3;;
23252;SDS011;11795;47.054;15.408;2023-07-13T03:26:01;2.5;;;1.3;;
23252;SDS011;11795;47.054;15.408;2023-07-13T03:28:00;2.3;;;1.3;;
23252;SDS011;11795;47.054;15.408;2023-07-13T03:30:00;2.3;;;1.3;;
23252;SDS011;11795;47.054;15.408;2023-07-13T03:32:00;2.3;;;1.3;;
23252;SDS011;11795;47.054;15.408;2023-07-13T03:34:00;2.3;;;1.4;;
23252;SDS011;11795;47.054;15.408;2023-07-13T03:36:01;2.3;;;1.4;;
23252;SDS011;11795;47.054;15.408;2023-07-13T03:38:00;2.4;;;1.5;;
23252;SDS011;11795;47.054;15.408;2023-07-13T03:40:01;2.4;;;1.5;;
23252;SDS011;11795;47.054;15.408;2023-07-13T03:42:00;2.4;;;1.5;;
23252;SDS011;11795;47.054;15.408;2023-07-13T03:44:00;2.3;;;1.6;;
23252;SDS011;11795;47.054;15.408;2023-07-13T03:46:00;2.3;;;1.6;;
23252;SDS011;11795;47.054;15.408;2023-07-13T03:48:00;2.3;;;1.6;;
23252;SDS011;11795;47.054;15.408;2023-07-13T03:50:00;2.3;;;1.6;;
23252;SDS011;11795;47.054;15.408;2023-07-13T03:52:00;2.3;;;1.6;;
23252;SDS011;11795;47.054;15.408;2023-07-13T03:54:00;2.4;;;1.9;;
23252;SDS011;11795;47.054;15.408;2023-07-13T03:56:01;2.4;;;1.9;;
23252;SDS011;11795;47.054;15.408;2023-07-13T03:58:01;3.0;;;1.9;;
23252;SDS011;11795;47.054;15.408;2023-07-13T04:00:00;3.0;;;1.9;;
23252;SDS011;11795;47.054;15.408;2023-07-13T04:02:00;3.0;;;1.9;;
23252;SDS011;11795;47.054;15.408;2023-07-13T04:04:00;4.3;;;1.9;;
23252;SDS011;11795;47.054;15.408;2023-07-13T04:06:01;4.3;;;1.9;;
23252;SDS011;11795;47.054;15.408;2023-07-13T04:08:00;2.3;;;1.8;;
23252;SDS011;11795;47.054;15.408;2023-07-13T04:10:00;2.3;;;1.8;;
23252;SDS011;11795;47.054;15.408;2023-07-13T04:12:00;2.3;;;1.8;;
23252;SDS011;11795;47.054;15.408;2023-07-13T04:14:00;2.4;;;1.8;;
23252;SDS011;11795;47.054;15.408;2023-07-13T04:16:00;2.4;;;1.8;;
23252;SDS011;11795;47.054;15.408;2023-07-13T04:18:00;2.8;;;1.8;;
23252;SDS011;11795;47.054;15.408;2023-07-13T04:20:00;2.8;;;1.8;;
23252;SDS011;11795;47.054;15.408;2023-07-13T04:22:00;2.8;;;1.8;;
23252;SDS011;11795;47.054;15.408;2023-07-13T04:24:00;2.2;;;1.5;;
23252;SDS011;11795;47.054;15.408;2023-07-13T04:26:00;2.2;;;1.5;;
23252;SDS011;11795;47.054;15.408;2023-07-13T04:28:01;1.8;;;1.5;;
23252;SDS011;11795;47.054;15.408;2023-07-13T04:30:00;1.8;;;1.5;;
23252;SDS011;11795;47.054;15.408;2023-07-13T04:32:00;1.8;;;1.5;;
23252;SDS011;11795;47.054;15.408;2023-07-13T04:34:00;1.8;;;1.5;;
23252;SDS011;11795;47.054;15.408;2023-07-13T04:36:01;1.8;;;1.5;;
23252;SDS011;11795;47.054;15.408;2023-07-13T04:38:01;2.9;;;1.7;;
23252;SDS011;11795;47.054;15.408;2023-07-13T04:40:00;2.9;;;1.7;;
23252;SDS011;11795;47.054;15.408;2023-07-13T04:42:00;2.9;;;1.7;;
23252;SDS011;11795;47.054;15.408;2023-07-13T04:44:00;1.7;;;1.4;;
23252;SDS011;11795;47.054;15.408;2023-07-13T04:46:03;1.7;;;1.4;;
23252;SDS011;11795;47.054;15.408;2023-07-13T04:48:00;2.2;;;1.3;;
23252;SDS011;11795;47.054;15.408;2023-07-13T04:50:01;2.2;;;1.3;;
23252;SDS011;11795;47.054;15.408;2023-07-13T04:52:00;2.2;;;1.3;;
23252;SDS011;11795;47.054;15.408;2023-07-13T04:54:00;2.5;;;1.3;;
23252;SDS011;11795;47.054;15.408;2023-07-13T04:56:00;2.5;;;1.3;;
23252;SDS011;11795;47.054;15.408;2023-07-13T04:58:00;2.8;;;1.7;;
23252;SDS011;11795;47.054;15.408;2023-07-13T05:00:01;2.8;;;1.7;;
23252;SDS011;11795;47.054;15.408;2023-07-13T05:02:01;2.8;;;1.7;;
23252;SDS011;11795;47.054;15.408;2023-07-13T05:04:00;1.8;;;1.4;;
23252;SDS011;11795;47.054;15.408;2023-07-13T05:06:04;1.8;;;1.4;;
23252;SDS011;11795;47.054;15.408;2023-07-13T05:08:00;2.1;;;1.3;;
23252;SDS011;11795;47.054;15.408;2023-07-13T05:10:00;2.1;;;1.3;;
23252;SDS011;11795;47.054;15.408;2023-07-13T05:12:00;2.1;;;1.3;;
23252;SDS011;11795;47.054;15.408;2023-07-13T05:14:01;2.4;;;1.3;;
23252;SDS011;11795;47.054;15.408;2023-07-13T05:16:01;2.4;;;1.3;;
23252;SDS011;11795;47.054;15.408;2023-07-13T05:18:00;4.6;;;1.8;;
23252;SDS011;11795;47.054;15.408;2023-07-13T05:20:00;4.6;;;1.8;;
23252;SDS011;11795;47.054;15.408;2023-07-13T05:22:00;4.6;;;1.8;;
23252;SDS011;11795;47.054;15.408;2023-07-13T05:24:00;2.0;;;1.2;;
23252;SDS011;11795;47.054;15.408;2023-07-13T05:26:01;2.0;;;1.2;;
23252;SDS011;11795;47.054;15.408;2023-07-13T05:28:00;2.5;;;1.5;;
23252;SDS011;11795;47.054;15.408;2023-07-13T05:30:00;2.5;;;1.5;;
23252;SDS011;11795;47.054;15.408;2023-07-13T05:32:00;2.5;;;1.5;;
23252;SDS011;11795;47.054;15.408;2023-07-13T05:34:00;1.8;;;1.4;;
23252;SDS011;11795;47.054;15.408;2023-07-13T05:36:00;1.8;;;1.4;;
23252;SDS011;11795;47.054;15.408;2023-07-13T05:38:00;3.2;;;1.6;;
23252;SDS011;11795;47.054;15.408;2023-07-13T05:40:00;3.2;;;1.6;;
23252;SDS011;11795;47.054;15.408;2023-07-13T05:42:01;3.2;;;1.6;;
23252;SDS011;11795;47.054;15.408;2023-07-13T05:44:00;1.9;;;1.2;;
23252;SDS011;11795;47.054;15.408;2023-07-13T05:46:00;1.9;;;1.2;;
23252;SDS011;11795;47.054;15.408;2023-07-13T05:48:00;2.1;;;1.3;;
23252;SDS011;11795;47.054;15.408;2023-07-13T05:50:00;2.1;;;1.3;;
23252;SDS011;11795;47.054;15.408;2023-07-13T05:52:00;2.1;;;1.3;;
23252;SDS011;11795;47.054;15.408;2023-07-13T05:54:00;2.7;;;1.4;;
23252;SDS011;11795;47.054;15.408;2023-07-13T05:56:00;2.7;;;1.4;;
23252;SDS011;11795;47.054;15.408;2023-07-13T05:58:00;2.5;;;1.2;;
23252;SDS011;11795;47.054;15.408;2023-07-13T06:00:00;2.5;;;1.2;;
23252;SDS011;11795;47.054;15.408;2023-07-13T06:02:00;2.5;;;1.2;;
23252;SDS011;11795;47.054;15.408;2023-07-13T06:04:00;3.3;;;1.2;;
23252;SDS011;11795;47.054;15.408;2023-07-13T06:06:00;3.3;;;1.2;;
23252;SDS011;11795;47.054;15.408;2023-07-13T06:08:00;1.4;;;1.3;;
23252;SDS011;11795;47.054;15.408;2023-07-13T06:10:00;1.4;;;1.3;;
23252;SDS011;11795;47.054;15.408;2023-07-13T06:12:00;1.4;;;1.3;;
23252;SDS011;11795;47.054;15.408;2023-07-13T06:14:00;1.8;;;1.2;;
23252;SDS011;11795;47.054;15.408;2023-07-13T06:16:01;1.8;;;1.2;;
23252;SDS011;11795;47.054;15.408;2023-07-13T06:18:00;2.8;;;1.4;;
23252;SDS011;11795;47.054;15.408;2023-07-13T06:20:00;2.8;;;1.4;;
23252;SDS011;11795;47.054;15.408;2023-07-13T06:22:00;2.8;;;1.4;;
23252;SDS011;11795;47.054;15.408;2023-07-13T06:24:00;1.5;;;1.1;;
23252;SDS011;11795;47.054;15.408;2023-07-13T06:26:00;1.5;;;1.1;;
23252;SDS011;11795;47.054;15.408;2023-07-13T06:28:00;2.2;;;1.0;;
23252;SDS011;11795;47.054;15.408;2023-07-13T06:30:00;2.2;;;1.0;;
23252;SDS011;11795;47.054;15.408;2023-07-13T06:32:00;2.2;;;1.0;;
23252;SDS011;11795;47.054;15.408;2023-07-13T06:34:00;1.8;;;1.0;;
23252;SDS011;11795;47.054;15.408;2023-07-13T06:36:01;1.8;;;1.0;;
23252;SDS011;11795;47.054;15.408;2023-07-13T06:38:01;1.7;;;0.9;;
23252;SDS011;11795;47.054;15.408;2023-07-13T06:40:00;1.7;;;0.9;;
23252;SDS011;11795;47.054;15.408;2023-07-13T06:42:00;1.7;;;0.9;;
23252;SDS011;11795;47.054;15.408;2023-07-13T06:44:00;1.5;;;0.9;;
23252;SDS011;11795;47.054;15.408;2023-07-13T06:46:01;1.5;;;0.9;;
23252;SDS011;11795;47.054;15.408;2023-07-13T06:48:00;1.9;;;0.8;;
23252;SDS011;11795;47.054;15.408;2023-07-13T06:50:00;1.9;;;0.8;;
23252;SDS011;11795;47.054;15.408;2023-07-13T06:52:00;1.9;;;0.8;;
23252;SDS011;11795;47.054;15.408;2023-07-13T06:54:00;2.1;;;1.0;;
23252;SDS011;11795;47.054;15.408;2023-07-13T06:56:00;2.1;;;1.0;;
23252;SDS011;11795;47.054;15.408;2023-07-13T06:58:00;1.6;;;0.9;;
23252;SDS011;11795;47.054;15.408;2023-07-13T07:00:00;1.6;;;0.9;;
23252;SDS011;11795;47.054;15.408;2023-07-13T07:02:00;1.6;;;0.9;;
23252;SDS011;11795;47.054;15.408;2023-07-13T07:04:00;1.6;;;0.8;;
23252;SDS011;11795;47.054;15.408;2023-07-13T07:06:01;1.6;;;0.8;;
23252;SDS011;11795;47.054;15.408;2023-07-13T07:08:00;1.6;;;0.8;;
23252;SDS011;11795;47.054;15.408;2023-07-13T07:10:00;1.2;;;0.7;;
23252;SDS011;11795;47.054;15.408;2023-07-13T07:12:01;1.2;;;0.7;;
23252;SDS011;11795;47.054;15.408;2023-07-13T07:14:00;1.6;;;0.7;;
23252;SDS011;11795;47.054;15.408;2023-07-13T07:16:00;1.6;;;0.7;;
23252;SDS011;11795;47.054;15.408;2023-07-13T07:18:00;1.6;;;0.7;;
23252;SDS011;11795;47.054;15.408;2023-07-13T07:20:00;0.8;;;0.6;;
23252;SDS011;11795;47.054;15.408;2023-07-13T07:22:00;0.8;;;0.6;;
23252;SDS011;11795;47.054;15.408;2023-07-13T07:24:00;2.0;;;0.7;;
23252;SDS011;11795;47.054;15.408;2023-07-13T07:26:00;2.0;;;0.7;;
23252;SDS011;11795;47.054;15.408;2023-07-13T07:28:00;2.0;;;0.7;;
23252;SDS011;11795;47.054;15.408;2023-07-13T07:30:00;1.5;;;0.7;;
23252;SDS011;11795;47.054;15.408;2023-07-13T07:32:00;1.5;;;0.7;;
23252;SDS011;11795;47.054;15.408;2023-07-13T07:34:01;1.7;;;0.7;;
23252;SDS011;11795;47.054;15.408;2023-07-13T07:36:00;1.7;;;0.7;;
23252;SDS011;11795;47.054;15.408;2023-07-13T07:38:00;1.7;;;0.7;;
23252;SDS011;11795;47.054;15.408;2023-07-13T07:40:00;1.5;;;0.6;;
23252;SDS011;11795;47.054;15.408;2023-07-13T07:42:00;1.5;;;0.6;;
23252;SDS011;11795;47.054;15.408;2023-07-13T07:44:00;0.6;;;0.6;;
23252;SDS011;11795;47.054;15.408;2023-07-13T07:46:00;0.6;;;0.6;;
23252;SDS011;11795;47.054;15.408;2023-07-13T07:48:00;0.6;;;0.6;;
23252;SDS011;11795;47.054;15.408;2023-07-13T07:50:00;1.6;;;0.9;;
23252;SDS011;11795;47.054;15.408;2023-07-13T07:52:00;1.6;;;0.9;;
23252;SDS011;11795;47.054;15.408;2023-07-13T07:54:00;2.3;;;0.8;;
23252;SDS011;11795;47.054;15.408;2023-07-13T07:56:00;2.3;;;0.8;;
23252;SDS011;11795;47.054;15.408;2023-07-13T07:58:00;2.3;;;0.8;;
23252;SDS011;11795;47.054;15.408;2023-07-13T08:00:00;2.0;;;0.7;;
23252;SDS011;11795;47.054;15.408;2023-07-13T08:02:02;2.0;;;0.7;;
23252;SDS011;11795;47.054;15.408;2023-07-13T08:04:00;1.4;;;0.9;;
23252;SDS011;11795;47.054;15.408;2023-07-13T08:06:00;1.4;;;0.9;;
23252;SDS011;11795;47.054;15.408;2023-07-13T08:08:00;1.4;;;0.9;;
23252;SDS011;11795;47.054;15.408;2023-07-13T08:10:00;1.0;;;0.6;;
23252;SDS011;11795;47.054;15.408;2023-07-13T08:12:00;1.0;;;0.6;;
23252;SDS011;11795;47.054;15.408;2023-07-13T08:14:00;1.4;;;0.7;;
23252;SDS011;11795;47.054;15.408;2023-07-13T08:16:00;1.4;;;0.7;;
23252;SDS011;11795;47.054;15.408;2023-07-13T08:18:00;1.4;;;0.7;;
23252;SDS011;11795;47.054;15.408;2023-07-13T08:20:00;1.6;;;0.7;;
23252;SDS011;11795;47.054;15.408;2023-07-13T08:22:00;1.6;;;0.7;;
23252;SDS011;11795;47.054;15.408;2023-07-13T08:24:00;2.0;;;0.7;;
23252;SDS011;11795;47.054;15.408;2023-07-13T08:26:01;2.0;;;0.7;;
23252;SDS011;11795;47.054;15.408;2023-07-13T08:28:01;2.0;;;0.7;;
23252;SDS011;11795;47.054;15.408;2023-07-13T08:30:00;1.1;;;0.5;;
23252;SDS011;11795;47.054;15.408;2023-07-13T08:32:00;1.1;;;0.5;;
23252;SDS011;11795;47.054;15.408;2023-07-13T08:34:00;1.0;;;0.6;;
23252;SDS011;11795;47.054;15.408;2023-07-13T08:36:00;1.0;;;0.6;;
23252;SDS011;11795;47.054;15.408;2023-07-13T08:38:00;1.0;;;0.6;;
23252;SDS011;11795;47.054;15.408;2023-07-13T08:40:00;1.0;;;0.6;;
23252;SDS011;11795;47.054;15.408;2023-07-13T08:42:05;1.0;;;0.6;;
23252;SDS011;11795;47.054;15.408;2023-07-13T08:44:00;1.4;;;0.5;;
23252;SDS011;11795;47.054;15.408;2023-07-13T08:46:02;1.4;;;0.5;;
23252;SDS011;11795;47.054;15.408;2023-07-13T08:48:01;1.4;;;0.5;;
23252;SDS011;11795;47.054;15.408;2023-07-13T08:50:01;0.5;;;0.4;;
23252;SDS011;11795;47.054;15.408;2023-07-13T08:52:02;0.5;;;0.4;;
23252;SDS011;11795;47.054;15.408;2023-07-13T08:54:01;0.6;;;0.4;;
23252;SDS011;11795;47.054;15.408;2023-07-13T08:56:00;0.6;;;0.4;;
23252;SDS011;11795;47.054;15.408;2023-07-13T08:58:02;0.6;;;0.4;;
23252;SDS011;11795;47.054;15.408;2023-07-13T09:00:00;2.3;;;0.5;;
23252;SDS011;11795;47.054;15.408;2023-07-13T09:02:05;2.3;;;0.5;;
23252;SDS011;11795;47.054;15.408;2023-07-13T09:04:04;0.6;;;0.5;;
23252;SDS011;11795;47.054;15.408;2023-07-13T09:06:02;0.6;;;0.5;;
23252;SDS011;11795;47.054;15.408;2023-07-13T09:08:04;0.6;;;0.5;;
23252;SDS011;11795;47.054;15.408;2023-07-13T09:10:05;0.9;;;0.6;;
23252;SDS011;11795;47.054;15.408;2023-07-13T09:12:02;0.9;;;0.6;;
23252;SDS011;11795;47.054;15.408;2023-07-13T09:14:02;1.3;;;0.6;;
23252;SDS011;11795;47.054;15.408;2023-07-13T09:16:00;1.3;;;0.6;;
23252;SDS011;11795;47.054;15.408;2023-07-13T09:18:02;1.3;;;0.6;;
23252;SDS011;11795;47.054;15.408;2023-07-13T09:20:02;0.9;;;0.5;;
23252;SDS011;11795;47.054;15.408;2023-07-13T09:22:01;0.9;;;0.5;;
23252;SDS011;11795;47.054;15.408;2023-07-13T09:24:01;1.0;;;0.5;;
23252;SDS011;11795;47.054;15.408;2023-07-13T09:26:02;1.0;;;0.5;;
23252;SDS011;11795;47.054;15.408;2023-07-13T09:28:02;1.0;;;0.5;;
23252;SDS011;11795;47.054;15.408;2023-07-13T09:30:02;1.6;;;0.6;;
23252;SDS011;11795;47.054;15.408;2023-07-13T09:32:02;1.6;;;0.6;;
23252;SDS011;11795;47.054;15.408;2023-07-13T09:34:00;1.3;;;0.6;;
23252;SDS011;11795;47.054;15.408;2023-07-13T09:36:00;1.3;;;0.6;;
23252;SDS011;11795;47.054;15.408;2023-07-13T09:38:03;1.3;;;0.6;;
23252;SDS011;11795;47.054;15.408;2023-07-13T09:40:01;1.0;;;0.6;;
23252;SDS011;11795;47.054;15.408;2023-07-13T09:42:01;1.0;;;0.6;;
23252;SDS011;11795;47.054;15.408;2023-07-13T09:44:01;0.4;;;0.4;;
23252;SDS011;11795;47.054;15.408;2023-07-13T09:46:00;0.4;;;0.4;;
23252;SDS011;11795;47.054;15.408;2023-07-13T09:48:03;0.4;;;0.4;;
23252;SDS011;11795;47.054;15.408;2023-07-13T09:50:01;1.5;;;0.5;;
23252;SDS011;11795;47.054;15.408;2023-07-13T09:52:01;1.5;;;0.5;;
23252;SDS011;11795;47.054;15.408;2023-07-13T09:54:01;1.1;;;0.7;;
23252;SDS011;11795;47.054;15.408;2023-07-13T09:56:00;1.1;;;0.7;;
23252;SDS011;11795;47.054;15.408;2023-07-13T09:58:03;1.1;;;0.7;;
23252;SDS011;11795;47.054;15.408;2023-07-13T10:00:01;0.6;;;0.6;;
23252;SDS011;11795;47.054;15.408;2023-07-13T10:02:00;0.6;;;0.6;;
23252;SDS011;11795;47.054;15.408;2023-07-13T10:04:01;1.1;;;0.6;;
23252;SDS011;11795;47.054;15.408;2023-07-13T10:06:01;1.1;;;0.6;;
23252;SDS011;11795;47.054;15.408;2023-07-13T10:08:00;1.1;;;0.6;;
23252;SDS011;11795;47.054;15.408;2023-07-13T10:10:01;0.6;;;0.6;;
23252;SDS011;11795;47.054;15.408;2023-07-13T10:12:01;0.6;;;0.6;;
23252;SDS011;11795;47.054;15.408;2023-07-13T10:14:01;0.8;;;0.6;;
23252;SDS011;11795;47.054;15.408;2023-07-13T10:16:00;0.8;;;0.6;;
23252;SDS011;11795;47.054;15.408;2023-07-13T10:18:00;0.8;;;0.6;;
23252;SDS011;11795;47.054;15.408;2023-07-13T10:20:05;1.5;;;0.7;;
23252;SDS011;11795;47.054;15.408;2023-07-13T10:22:02;1.5;;;0.7;;
23252;SDS011;11795;47.054;15.408;2023-07-13T10:24:03;1.5;;;0.7;;
23252;SDS011;11795;47.054;15.408;2023-07-13T10:26:01;0.7;;;0.6;;
23252;SDS011;11795;47.054;15.408;2023-07-13T10:28:02;0.7;;;0.6;;
23252;SDS011;11795;47.054;15.408;2023-07-13T10:30:01;0.8;;;0.6;;
23252;SDS011;11795;47.054;15.408;2023-07-13T10:32:00;0.8;;;0.6;;
23252;SDS011;11795;47.054;15.408;2023-07-13T10:34:01;0.8;;;0.6;;
23252;SDS011;11795;47.054;15.408;2023-07-13T10:36:04;1.0;;;0.8;;
23252;SDS011;11795;47.054;15.408;2023-07-13T10:38:02;1.0;;;0.8;;
23252;SDS011;11795;47.054;15.408;2023-07-13T10:40:00;0.7;;;0.6;;
23252;SDS011;11795;47.054;15.408;2023-07-13T10:42:04;0.7;;;0.6;;
23252;SDS011;11795;47.054;15.408;2023-07-13T10:44:00;0.7;;;0.6;;
23252;SDS011;11795;47.054;15.408;2023-07-13T10:46:00;1.0;;;0.8;;
23252;SDS011;11795;47.054;15.408;2023-07-13T10:48:00;1.0;;;0.8;;
23252;SDS011;11795;47.054;15.408;2023-07-13T10:50:00;0.7;;;0.7;;
23252;SDS011;11795;47.054;15.408;2023-07-13T10:52:00;0.7;;;0.7;;
23252;SDS011;11795;47.054;15.408;2023-07-13T10:56:01;1.3;;;1.2;;
23252;SDS011;11795;47.054;15.408;2023-07-13T10:58:01;1.3;;;1.2;;
23252;SDS011;11795;47.054;15.408;2023-07-13T11:00:13;1.2;;;0.9;;
23252;SDS011;11795;47.054;15.408;2023-07-13T11:02:09;1.2;;;0.9;;
23252;SDS011;11795;47.054;15.408;2023-07-13T11:04:02;1.2;;;0.9;;
23252;SDS011;11795;47.054;15.408;2023-07-13T11:06:05;0.6;;;0.6;;
23252;SDS011;11795;47.054;15.408;2023-07-13T11:08:03;0.6;;;0.6;;
23252;SDS011;11795;47.054;15.408;2023-07-13T11:10:03;1.0;;;0.7;;
23252;SDS011;11795;47.054;15.408;2023-07-13T11:12:00;1.0;;;0.7;;
23252;SDS011;11795;47.054;15.408;2023-07-13T11:14:05;1.0;;;0.7;;
23252;SDS011;11795;47.054;15.408;2023-07-13T11:16:00;0.6;;;0.6;;
23252;SDS011;11795;47.054;15.408;2023-07-13T11:18:02;0.6;;;0.6;;
23252;SDS011;11795;47.054;15.408;2023-07-13T11:20:08;1.5;;;0.8;;
23252;SDS011;11795;47.054;15.408;2023-07-13T11:22:02;1.5;;;0.8;;
23252;SDS011;11795;47.054;15.408;2023-07-13T11:24:02;1.5;;;0.8;;
23252;SDS011;11795;47.054;15.408;2023-07-13T11:26:01;1.2;;;0.7;;
23252;SDS011;11795;47.054;15.408;2023-07-13T11:28:05;1.2;;;0.7;;
23252;SDS011;11795;47.054;15.408;2023-07-13T11:32:02;1.8;;;0.8;;
23252;SDS011;11795;47.054;15.408;2023-07-13T11:34:00;1.8;;;0.8;;
23252;SDS011;11795;47.054;15.408;2023-07-13T11:36:03;1.4;;;0.9;;
23252;SDS011;11795;47.054;15.408;2023-07-13T11:38:00;1.4;;;0.9;;
23252;SDS011;11795;47.054;15.408;2023-07-13T11:40:00;1.7;;;0.8;;
23252;SDS011;11795;47.054;15.408;2023-07-13T11:42:01;1.7;;;0.8;;
23252;SDS011;11795;47.054;15.408;2023-07-13T11:44:07;1.7;;;0.8;;
23252;SDS011;11795;47.054;15.408;2023-07-13T11:48:01;2.1;;;0.9;;
23252;SDS011;11795;47.054;15.408;2023-07-13T11:50:00;1.3;;;0.8;;
23252;SDS011;11795;47.054;15.408;2023-07-13T11:52:02;1.3;;;0.8;;
23252;SDS011;11795;47.054;15.408;2023-07-13T11:54:02;1.3;;;0.8;;
23252;SDS011;11795;47.054;15.408;2023-07-13T11:56:00;1.2;;;0.8;;
23252;SDS011;11795;47.054;15.408;2023-07-13T11:58:00;1.2;;;0.8;;
23252;SDS011;11795;47.054;15.408;2023-07-13T12:00:03;0.9;;;0.8;;
23252;SDS011;11795;47.054;15.408;2023-07-13T12:02:00;0.9;;;0.8;;
23252;SDS011;11795;47.054;15.408;2023-07-13T12:04:01;0.9;;;0.8;;
23252;SDS011;11795;47.054;15.408;2023-07-13T12:06:01;1.8;;;0.8;;
23252;SDS011;11795;47.054;15.408;2023-07-13T12:08:08;1.8;;;0.8;;
23252;SDS011;11795;47.054;15.408;2023-07-13T12:10:01;1.5;;;1.0;;
23252;SDS011;11795;47.054;15.408;2023-07-13T12:12:01;1.5;;;1.0;;
23252;SDS011;11795;47.054;15.408;2023-07-13T12:14:00;1.5;;;1.0;;
23252;SDS011;11795;47.054;15.408;2023-07-13T12:16:00;2.0;;;0.9;;
23252;SDS011;11795;47.054;15.408;2023-07-13T12:18:00;2.0;;;0.9;;
23252;SDS011;11795;47.054;15.408;2023-07-13T12:20:01;0.9;;;0.8;;